Sierra Nevada Aquatic Research Lab (SNARL) Reserve, Santa Monica Mtns, California Weather observations

Data are for 10 minute period ending at time listed.
 Day   Time   Solar   Ave.   Ave.  Ave.  Vector  Max.   Baro.   Total    
  of    of     Rad.   Air    Rel.  Wind   Wind   Wind  Press.  Precip.   
Year   Day            Temp.  Hum.  Speed  Dir.   Gust                    
2014   (PST)  Kw/m2    F      %     mph   deg.    mph    mb.     in.     
-------------------------------------------------------------------------
 243    3:10   0.00   47.2    35    1.5    31     3.1   784.3    0.00 
 243    3:20   0.00   46.0    35    4.0   223     9.1   784.4    0.00 
 243    3:30   0.00   46.2    37    3.2   310     6.3   784.4    0.00 
 243    3:40   0.00   45.8    36    2.2   228     5.7   784.5    0.00 
 243    3:50   0.00   43.7    38    4.1   211     6.4   784.5    0.00 
 243    4:00   0.00   43.4    38    2.5   237     6.4   784.4    0.00 
 243    4:10   0.00   44.1    36    2.6   219     5.6   784.5    0.00 
 243    4:20   0.00   43.8    37    2.1   231     5.3   784.6    0.00 
 243    4:30   0.00   43.5    36    1.3   212     3.4   784.6    0.00 
 243    4:40   0.00   43.3    36    2.4   235     4.0   784.6    0.00 
 243    4:50   0.00   43.5    36    2.4   246     5.3   784.8    0.00 
 243    5:00   0.00   42.8    36    3.3   239     5.0   784.8    0.00 
 243    5:10   0.00   43.0    37    2.5   226     7.2   784.8    0.00 
 243    5:20   0.00   42.8    39    2.9   233     5.1   784.9    0.00 
 243    5:30   0.00   41.6    38    2.3   220     4.2   785.0    0.00 
 243    5:40   0.00   43.1    36    2.9   231     4.6   785.0    0.00 
 243    5:50   0.04   45.4    35    0.7   204     2.3   785.1    0.00 
 243    6:00   0.06   46.0    36    2.3   187     3.9   785.2    0.00 
 243    6:10   0.10   49.4    34    1.5   225     2.2   785.3    0.00 
 243    6:20   0.13   53.4    31    0.8   134     3.5   785.3    0.00 
 243    6:30   0.16   55.8    32    1.8   286     3.0   785.2    0.00 
 243    6:40   0.20   58.4    29    1.6    21     3.9   785.2    0.00 
 243    6:50   0.23   60.5    26    1.7    48     4.1   785.2    0.00 
 243    7:00   0.27   61.9    28    2.1    30     4.7   785.2    0.00 
 243    7:10   0.30   61.7    27    3.0    24     5.0   785.1    0.00 
 243    7:20   0.34   63.0    27    2.6    43     5.4   785.1    0.00 
 243    7:30   0.37   64.1    24    3.7    66     6.9   785.1    0.00 
 243    7:40   0.41   65.6    22    4.8    72     9.1   785.2    0.00 
 243    7:50   0.44   66.0    21    5.0    76     9.7   785.3    0.00 
 243    8:00   0.47   67.2    22    4.0    54     7.7   785.4    0.00 
 243    8:10   0.48   68.2    21    3.7    53     7.3   785.4    0.00 
 243    8:20   0.54   69.7    20    4.7    68    10.2   785.5    0.00 
 243    8:30   0.57   70.6    18    5.8    75    10.9   785.6    0.00 
 243    8:40   0.60   71.1    18    6.5    78    12.8   785.7    0.00 
 243    8:50   0.64   71.0    16    8.2    85    12.8   785.8    0.00 
 243    9:00   0.66   71.7    13    9.6    99    13.4   785.8    0.00 
 243    9:10   0.69   72.8    12    9.7   104    13.4   785.8    0.00 
 243    9:20   0.72   74.0    11   10.0   100    13.0   785.8    0.00 
 243    9:30   0.75   75.4    11    8.2   102    13.9   785.8    0.00 
 243    9:40   0.77   75.5    11    9.0    99    13.2   785.7    0.00 
 243    9:50   0.79   76.5    10    5.6   107    11.5   785.7    0.00 
 243   10:00   0.81   77.6    11    6.3    91    11.0   785.7    0.00 
 243   10:10   0.83   77.9    11    8.0    94    13.6   785.6    0.00 
 243   10:20   0.85   77.5    12    7.8    87    14.5   785.5    0.00 
 243   10:30   0.86   79.0    11    9.6    92    15.3   785.5    0.00 
 243   10:40   0.88   78.8    12    6.4    73    12.2   785.5    0.00 
 243   10:50   0.89   79.7    13    3.4   356    10.2   785.4    0.00 
 243   11:00   0.90   81.2    14    8.0   277    15.6   785.3    0.00 
 243   11:10   0.91   81.7    14    7.6   285    16.6   785.2    0.00 
 243   11:20   0.91   81.4    14   10.2   280    19.5   785.1    0.00 
 243   11:30   0.92   80.7    14   10.9   280    21.9   785.1    0.00 
 243   11:40   0.93   81.7    13    8.6   287    16.7   785.0    0.00 
 243   11:50   0.93   81.6    13   12.1   303    22.5   784.9    0.00 
 243   12:00   0.93   82.2    12   10.1   298    19.1   784.8    0.00 
 243   12:10   0.93   82.3    12   11.7   291    21.0   784.8    0.00 
 243   12:20   0.93   82.6    12   12.1   289    21.5   784.7    0.00 
 243   12:30   0.92   82.2    12   12.6   283    21.9   784.7    0.00 
 243   12:40   0.91   83.0    12   10.6   283    16.4   784.6    0.00 
 243   12:50   0.91   83.2    12   11.7   276    24.6   784.5    0.00 
 243   13:00   0.90   82.5    12   13.1   282    22.4   784.5    0.00 
 243   13:10   0.89   82.8    12   10.2   283    17.8   784.4    0.00 
 243   13:20   0.87   83.2    11   11.6   286    20.5   784.4    0.00 
 243   13:30   0.86   83.4    11   10.5   286    19.7   784.3    0.00 
 243   13:40   0.84   83.7    11    9.9   283    20.0   784.3    0.00 
 243   13:50   0.82   84.0    11    9.0   294    15.1   784.2    0.00 
 243   14:00   0.81   83.6    11   10.5   288    20.5   784.0    0.00 
 243   14:10   0.78   84.1    11   11.1   270    24.0   784.0    0.00 
 243   14:20   0.76   84.2    11   11.3   260    19.6   784.0    0.00 
 243   14:30   0.73   84.4    12    9.3   285    15.7   783.9    0.00 
 243   14:40   0.71   83.9    12    9.8   278    19.0   783.8    0.00 
 243   14:50   0.68   83.7    12   10.4   293    18.6   783.8    0.00 
 243   15:00   0.65   83.4    13   10.6   288    17.0   783.7    0.00 
 243   15:10   0.62   83.7    13    9.8   283    16.0   783.7    0.00 
 243   15:20   0.59   83.7    13   10.9   270    17.0   783.7    0.00 
 243   15:30   0.56   83.9    13    9.6   278    15.5   783.7    0.00 
 243   15:40   0.53   83.3    13    9.3   284    14.8   783.7    0.00 
 243   15:50   0.49   83.2    13    7.9   290    14.1   783.7    0.00 
 243   16:00   0.46   83.0    14    8.8   267    15.6   783.7    0.00 
 243   16:10   0.42   82.7    14    6.8   266    14.7   783.7    0.00 
 243   16:20   0.39   82.7    14    7.2   275    13.1   783.7    0.00 
 243   16:30   0.35   81.9    16    9.0   288    16.1   783.7    0.00 
 243   16:40   0.32   81.1    16    9.9   286    16.7   783.7    0.00 
 243   16:50   0.28   80.2    16   11.6   284    18.6   783.8    0.00 
 243   17:00   0.25   80.1    16    9.9   280    15.3   783.9    0.00 
 243   17:10   0.21   79.8    17   10.3   282    17.4   784.0    0.00 
 243   17:20   0.18   80.0    16    8.1   255    13.8   784.0    0.00 
 243   17:30   0.15   79.4    17    8.2   260    13.2   784.0    0.00 
 243   17:40   0.12   78.4    18    7.3   268    12.9   784.0    0.00 
 243   17:50   0.08   77.3    18    7.4   273    13.2   784.0    0.00 
 243   18:00   0.05   75.0    20    6.9   279    10.7   784.0    0.00 
 243   18:10   0.01   72.8    22    6.5   281    10.2   784.1    0.00 
 243   18:20   0.00   71.2    23    6.6   277    12.4   784.2    0.00 
 243   18:30   0.00   69.9    24    7.1   270    11.1   784.2    0.00 
 243   18:40   0.00   68.8    24    4.1   260     8.3   784.3    0.00 
 243   18:50   0.00   67.4    25    2.3   249     4.5   784.3    0.00 
 243   19:00   0.00   65.5    27    2.9   347     8.2   784.4    0.00 
 243   19:10   0.00   65.8    27    5.1   300     7.5   784.6    0.00 
 243   19:20   0.00   63.5    28    3.8   242     6.9   784.5    0.00 
 243   19:30   0.00   60.7    29    3.0   234     5.3   784.6    0.00 
 243   19:40   0.00   59.3    30    2.2   224     4.7   784.6    0.00 
 243   19:50   0.00   59.0    30    3.4   243     5.3   784.7    0.00 
 243   20:00   0.00   58.7    30    3.0   242     4.9   784.8    0.00 
 243   20:10   0.00   58.4    32    1.0     1     2.9   784.8    0.00 
 243   20:20   0.00   56.8    36    2.1   251     3.9   784.8    0.00 
 243   20:30   0.00   55.4    36    2.0   190     4.9   784.8    0.00 
 243   20:40   0.00   55.9    35    3.3   247     6.9   784.7    0.00 
 243   20:50   0.00   56.1    34    5.0   236     6.7   784.7    0.00 
 243   21:00   0.00   56.9    33    4.9   220     6.4   784.8    0.00 
 243   21:10   0.00   57.5    33    5.3   234     6.4   784.9    0.00 
 243   21:20   0.00   58.8    32    5.8   243     9.1   785.0    0.00 
 243   21:30   0.00   61.0    30    7.5   245    10.2   785.0    0.00 
 243   21:40   0.00   61.9    29    6.8   250    10.5   785.0    0.00 
 243   21:50   0.00   62.5    28    6.5   238     9.6   785.1    0.00 
 243   22:00   0.00   60.7    30    2.8   220     7.5   785.1    0.00 
 243   22:10   0.00   56.1    36    2.5    81     4.5   785.2    0.00 
 243   22:20   0.00   55.1    38    1.7   356     3.8   785.3    0.00 
 243   22:30   0.00   53.6    38    1.8   227     3.7   785.2    0.00 
 243   22:40   0.00   52.4    42    2.0   320     4.9   785.2    0.00 
 243   22:50   0.00   52.0    40    1.1   355     4.5   785.2    0.00 
 243   23:00   0.00   52.1    39    2.2   219     6.4   785.2    0.00 
 243   23:10   0.00   52.4    38    3.8   232     7.9   785.3    0.00 
 243   23:20   0.00   54.2    37    1.3   221     3.5   785.3    0.00 
 243   23:30   0.00   55.8    36    2.4   234     4.2   785.2    0.00 
 243   23:40   0.00   56.6    36    4.3   237     6.7   785.3    0.00 
 243   23:50   0.00   55.3    39    0.8   257     2.4   785.3    0.00 
 244    0:00   0.00   51.9    44    2.2   325     4.2   785.4    0.00 
 244    0:10   0.00   50.6    44    2.4   317     5.1   785.5    0.00 
 244    0:20   0.00   49.6    43    2.0   204     3.9   785.5    0.00 
 244    0:30   0.00   50.3    42    3.2   239     6.6   785.5    0.00 
 244    0:40   0.00   52.3    42    2.0   292     3.4   785.5    0.00 
 244    0:50   0.00   53.1    40    4.6   319     8.8   785.5    0.00 
 244    1:00   0.00   51.9    40    2.6   320     9.1   785.6    0.00 
 244    1:10   0.00   50.5    42    0.2   328     2.3   785.5    0.00 
 244    1:20   0.00   47.7    46    0.5   164     1.8   785.6    0.00 
 244    1:30   0.00   46.7    50    0.8   317     2.4   785.6    0.00 
 244    1:40   0.00   46.4    51    1.5   336     5.8   785.6    0.00 
 244    1:50   0.00   47.9    48    4.2   337     6.8   785.6    0.00 
 244    2:00   0.00   48.3    46    3.2   321     5.1   785.6    0.00 
 244    2:10   0.00   46.9    48    0.6   294     3.5   785.6    0.00 
 244    2:20   0.00   46.1    50    0.5   257     2.2   785.6    0.00 
 244    2:30   0.00   46.7    48    1.3   245     3.1   785.6    0.00 
 244    2:40   0.00   48.9    46    4.0   331     5.9   785.6    0.00 
 244    2:50   0.00   49.5    45    2.9   342     5.8   785.6    0.00 
 244    3:00   0.00   46.5    49    1.4   134     2.7   785.6    0.00 

Return to SNARL Reserve graphs page.


Western Regional Climate Center,wrcc@dri.edu